Time;durP1;ratioP1;P1;durP2;ratioP2;P2;SDS_P1;SDS_P2;PMS_P1;PMS_P2;Temp;Humidity;BMP_temperature;BMP_pressure;BME280_temperature;BME280_humidity;BME280_pressure;Samples;Min_cycle;Max_cycle;Signal;HPM_P1;HPM_P2
2022/05/10 00:01:00;;;;;;;118.93;27.67;;;;;;;;;;4960011;28;20280;-47
2022/05/10 00:03:36;;;;;;;134.57;31.57;;;;;;;;;;4964278;28;20516;-47
2022/05/10 00:06:02;;;;;;;87.67;20.37;;;;;;;;;;4966849;28;20235;-47
2022/05/10 00:08:28;;;;;;;141.50;31.77;;;;;;;;;;4968436;28;20189;-47
2022/05/10 00:10:56;;;;;;;115.70;25.93;;;;;;;;;;4962114;28;20627;-47
2022/05/10 00:13:22;;;;;;;128.47;30.57;;;;;;;;;;4968021;28;20944;-47
2022/05/10 00:15:48;;;;;;;169.80;37.55;;;;;;;;;;4968276;28;20214;-47
2022/05/10 00:18:15;;;;;;;93.20;22.50;;;;;;;;;;4965610;28;20627;-48
2022/05/10 00:20:42;;;;;;;128.47;29.77;;;;;;;;;;4966627;28;20196;-47
2022/05/10 00:23:08;;;;;;;73.00;18.93;;;;;;;;;;4972865;28;20590;-47
2022/05/10 00:25:34;;;;;;;125.75;27.42;;;;;;;;;;4962645;28;20243;-47
2022/05/10 00:28:00;;;;;;;70.70;17.70;;;;;;;;;;4965478;28;20625;-47
2022/05/10 00:30:26;;;;;;;131.97;29.63;;;;;;;;;;4959694;28;20333;-47
2022/05/10 00:32:52;;;;;;;143.20;30.50;;;;;;;;;;4965736;28;20284;-47
2022/05/10 00:35:22;;;;;;;89.55;21.50;;;;;;;;;;4966372;28;20220;-47
2022/05/10 00:37:48;;;;;;;77.80;19.03;;;;;;;;;;4971453;28;20232;-47
2022/05/10 00:40:15;;;;;;;133.35;29.60;;;;;;;;;;4977338;28;20228;-47
2022/05/10 00:42:48;;;;;;;100.70;24.20;;;;;;;;;;4973640;28;20319;-47
2022/05/10 00:45:15;;;;;;;150.07;32.90;;;;;;;;;;4972368;28;20224;-47
2022/05/10 00:47:46;;;;;;;143.88;31.65;;;;;;;;;;4973093;28;20335;-47
2022/05/10 00:50:16;;;;;;;109.32;24.23;;;;;;;;;;4972871;28;20189;-47
2022/05/10 00:52:52;;;;;;;101.90;23.10;;;;;;;;;;4975179;28;20205;-47
2022/05/10 00:55:30;;;;;;;138.90;29.23;;;;;;;;;;4971562;28;20742;-47
2022/05/10 00:58:01;;;;;;;159.75;33.45;;;;;;;;;;4966002;28;20244;-47
2022/05/10 01:00:29;;;;;;;121.90;26.53;;;;;;;;;;4972547;28;20218;-47
2022/05/10 01:02:55;;;;;;;88.37;20.17;;;;;;;;;;4968875;28;20726;-47
2022/05/10 01:05:43;;;;;;;88.03;20.53;;;;;;;;;;4978508;28;20220;-47
2022/05/10 01:08:09;;;;;;;90.72;21.35;;;;;;;;;;4973328;28;20256;-48
2022/05/10 01:10:48;;;;;;;100.68;23.05;;;;;;;;;;4969575;28;20308;-47
2022/05/10 01:13:18;;;;;;;113.87;24.93;;;;;;;;;;4975743;28;20227;-47
2022/05/10 01:15:53;;;;;;;112.87;25.20;;;;;;;;;;4968541;28;20225;-47
2022/05/10 01:18:21;;;;;;;114.07;24.50;;;;;;;;;;4966371;28;20209;-47
2022/05/10 01:20:48;;;;;;;109.32;24.05;;;;;;;;;;4977026;28;20326;-47
2022/05/10 01:23:34;;;;;;;123.77;25.30;;;;;;;;;;4969560;28;20352;-47
2022/05/10 01:26:12;;;;;;;112.93;23.85;;;;;;;;;;4967768;28;20349;-47
2022/05/10 01:28:48;;;;;;;66.27;16.50;;;;;;;;;;4972173;28;20290;-47
2022/05/10 01:31:18;;;;;;;140.30;27.52;;;;;;;;;;4968606;28;20271;-48
2022/05/10 01:34:02;;;;;;;104.43;23.55;;;;;;;;;;4968778;28;20221;-48
2022/05/10 01:36:46;;;;;;;64.60;16.10;;;;;;;;;;4972703;28;20363;-47
2022/05/10 01:39:24;;;;;;;127.17;26.17;;;;;;;;;;4969941;28;20391;-47
2022/05/10 01:42:00;;;;;;;115.53;24.07;;;;;;;;;;4968362;28;20536;-47
2022/05/10 01:44:40;;;;;;;94.00;20.10;;;;;;;;;;4968292;28;20581;-47
2022/05/10 01:47:06;;;;;;;102.60;21.43;;;;;;;;;;4959999;28;20249;-47
2022/05/10 01:49:49;;;;;;;138.83;27.77;;;;;;;;;;4978228;28;20666;-47
2022/05/10 01:52:33;;;;;;;70.23;16.50;;;;;;;;;;4967311;28;20651;-47
2022/05/10 01:55:20;;;;;;;70.67;15.80;;;;;;;;;;4977171;28;20217;-47
2022/05/10 01:57:46;;;;;;;194.37;36.23;;;;;;;;;;4963282;28;20229;-47
2022/05/10 02:00:18;;;;;;;153.80;29.90;;;;;;;;;;4969110;28;20220;-47
2022/05/10 02:03:03;;;;;;;130.47;26.80;;;;;;;;;;4968221;28;20296;-47
2022/05/10 02:05:48;;;;;;;68.03;16.83;;;;;;;;;;4971458;28;20216;-47
2022/05/10 02:08:19;;;;;;;108.20;22.37;;;;;;;;;;4969206;28;20185;-47
2022/05/10 02:10:47;;;;;;;110.37;22.40;;;;;;;;;;4970041;28;20217;-47
2022/05/10 02:13:15;;;;;;;82.30;17.30;;;;;;;;;;4968624;28;20699;-48
2022/05/10 02:15:44;;;;;;;76.07;16.67;;;;;;;;;;4971864;28;20221;-48
2022/05/10 02:18:31;;;;;;;68.17;15.73;;;;;;;;;;4982163;28;20834;-47
2022/05/10 02:21:19;;;;;;;105.23;21.27;;;;;;;;;;4973418;28;20221;-47
2022/05/10 02:23:51;;;;;;;119.77;25.40;;;;;;;;;;4967076;28;20696;-47
2022/05/10 02:26:19;;;;;;;106.90;21.90;;;;;;;;;;4969228;28;20213;-47
2022/05/10 02:28:48;;;;;;;86.20;19.30;;;;;;;;;;4976259;28;20586;-47
2022/05/10 02:31:17;;;;;;;168.97;32.13;;;;;;;;;;4957307;28;20213;-47
2022/05/10 02:33:44;;;;;;;125.80;24.73;;;;;;;;;;4965163;28;20222;-47
2022/05/10 02:36:10;;;;;;;79.63;17.47;;;;;;;;;;4972698;28;20268;-47
2022/05/10 02:38:37;;;;;;;102.23;22.00;;;;;;;;;;4972285;28;20197;-47
2022/05/10 02:41:05;;;;;;;107.73;21.77;;;;;;;;;;4970008;28;20197;-47
2022/05/10 02:43:42;;;;;;;85.50;17.67;;;;;;;;;;4967805;28;20225;-47
2022/05/10 02:46:07;;;;;;;114.27;22.70;;;;;;;;;;4960947;28;20674;-47
2022/05/10 02:48:34;;;;;;;135.17;26.70;;;;;;;;;;4972025;28;20213;-47
2022/05/10 02:51:01;;;;;;;147.17;28.23;;;;;;;;;;4965943;28;20295;-47
2022/05/10 02:53:27;;;;;;;111.53;22.63;;;;;;;;;;4965127;28;20189;-47
2022/05/10 02:55:56;;;;;;;123.00;24.03;;;;;;;;;;4973035;28;20210;-48
2022/05/10 02:58:33;;;;;;;78.77;17.90;;;;;;;;;;4967692;28;20218;-47
2022/05/10 03:01:17;;;;;;;99.40;20.63;;;;;;;;;;4971305;28;20275;-47
2022/05/10 03:03:43;;;;;;;82.07;18.30;;;;;;;;;;4969422;28;20217;-47
2022/05/10 03:06:09;;;;;;;121.93;23.83;;;;;;;;;;4964458;28;20305;-48
2022/05/10 03:08:35;;;;;;;73.97;17.23;;;;;;;;;;4967094;28;20280;-47
2022/05/10 03:11:01;;;;;;;86.60;19.13;;;;;;;;;;4971932;28;20258;-47
2022/05/10 03:13:27;;;;;;;75.30;16.73;;;;;;;;;;4972009;28;20300;-47
2022/05/10 03:15:53;;;;;;;233.90;41.20;;;;;;;;;;4964017;28;20759;-47
2022/05/10 03:18:19;;;;;;;110.67;21.67;;;;;;;;;;4968444;28;20257;-47
2022/05/10 03:20:45;;;;;;;120.60;23.13;;;;;;;;;;4966654;28;20281;-48
2022/05/10 03:23:11;;;;;;;83.10;17.03;;;;;;;;;;4960485;28;20794;-47
2022/05/10 03:25:37;;;;;;;109.70;21.70;;;;;;;;;;4969373;28;20805;-47
2022/05/10 03:28:03;;;;;;;128.80;24.70;;;;;;;;;;4967741;28;20670;-47
2022/05/10 03:30:30;;;;;;;105.43;21.57;;;;;;;;;;4968876;28;20244;-47
2022/05/10 03:32:57;;;;;;;142.27;26.60;;;;;;;;;;4966093;28;20581;-48
2022/05/10 03:35:23;;;;;;;83.73;18.23;;;;;;;;;;4967301;28;20185;-47
2022/05/10 03:37:49;;;;;;;89.97;19.07;;;;;;;;;;4968054;28;20760;-47
2022/05/10 03:40:15;;;;;;;84.90;17.63;;;;;;;;;;4970885;28;20217;-47
2022/05/10 03:42:48;;;;;;;103.53;20.77;;;;;;;;;;4962868;28;20230;-47
2022/05/10 03:45:15;;;;;;;95.13;19.23;;;;;;;;;;4964387;28;20266;-47
2022/05/10 03:47:41;;;;;;;79.13;16.53;;;;;;;;;;4967162;28;20262;-47
2022/05/10 03:50:08;;;;;;;71.63;15.00;;;;;;;;;;4968165;28;20511;-47
2022/05/10 03:52:34;;;;;;;77.53;17.20;;;;;;;;;;4972983;28;20209;-47
2022/05/10 03:55:00;;;;;;;104.77;20.93;;;;;;;;;;4967005;28;20222;-47
2022/05/10 03:57:26;;;;;;;100.27;20.50;;;;;;;;;;4960957;28;20295;-47
2022/05/10 03:59:52;;;;;;;117.80;23.43;;;;;;;;;;4970004;28;20218;-47
2022/05/10 04:02:19;;;;;;;94.13;20.13;;;;;;;;;;4965668;28;20213;-47
2022/05/10 04:04:45;;;;;;;98.10;19.93;;;;;;;;;;4970172;28;20217;-48
2022/05/10 04:07:11;;;;;;;58.00;13.57;;;;;;;;;;4974486;28;20327;-47
2022/05/10 04:09:37;;;;;;;89.90;17.87;;;;;;;;;;4973667;28;20241;-47
2022/05/10 04:12:03;;;;;;;120.03;22.17;;;;;;;;;;4972533;28;20256;-47
2022/05/10 04:14:29;;;;;;;83.17;18.90;;;;;;;;;;4975677;28;20209;-47
2022/05/10 04:16:55;;;;;;;100.93;20.70;;;;;;;;;;4972500;28;20224;-47
2022/05/10 04:19:22;;;;;;;80.93;16.80;;;;;;;;;;4973565;28;20217;-48
2022/05/10 04:21:49;;;;;;;108.73;21.70;;;;;;;;;;4967538;28;20234;-47
2022/05/10 04:24:15;;;;;;;95.10;19.53;;;;;;;;;;4964422;28;20221;-47
2022/05/10 04:26:41;;;;;;;56.73;13.73;;;;;;;;;;4969215;28;20224;-47
2022/05/10 04:29:07;;;;;;;84.80;18.63;;;;;;;;;;4968248;28;20179;-47
2022/05/10 04:31:33;;;;;;;92.70;20.30;;;;;;;;;;4970999;28;20224;-47
2022/05/10 04:33:59;;;;;;;144.63;27.63;;;;;;;;;;4963916;28;20217;-47
2022/05/10 04:36:25;;;;;;;121.20;23.93;;;;;;;;;;4966081;28;20250;-47
2022/05/10 04:38:51;;;;;;;110.60;20.83;;;;;;;;;;4964366;28;20658;-47
2022/05/10 04:41:24;;;;;;;65.13;15.33;;;;;;;;;;4967283;28;20190;-47
2022/05/10 04:43:50;;;;;;;85.20;17.77;;;;;;;;;;4972356;28;20668;-47
2022/05/10 04:46:16;;;;;;;93.17;19.03;;;;;;;;;;4968434;28;20255;-47
2022/05/10 04:48:43;;;;;;;113.67;22.80;;;;;;;;;;4966406;28;20312;-47
2022/05/10 04:51:10;;;;;;;50.30;13.17;;;;;;;;;;4966928;28;20220;-47
2022/05/10 04:53:36;;;;;;;38.80;9.93;;;;;;;;;;4964944;28;20189;-47
2022/05/10 04:56:03;;;;;;;158.60;29.00;;;;;;;;;;4967425;28;20177;-47
2022/05/10 04:58:29;;;;;;;81.80;18.00;;;;;;;;;;4970815;28;20205;-47
2022/05/10 05:00:56;;;;;;;90.50;19.60;;;;;;;;;;4974292;28;20704;-47
2022/05/10 05:03:23;;;;;;;72.30;17.07;;;;;;;;;;4973777;28;20364;-47
2022/05/10 05:05:49;;;;;;;106.20;20.73;;;;;;;;;;4971189;28;20259;-47
2022/05/10 05:08:15;;;;;;;88.20;18.40;;;;;;;;;;4969985;28;20604;-47
2022/05/10 05:10:40;;;;;;;53.10;12.90;;;;;;;;;;4972219;28;20233;-47
2022/05/10 05:13:06;;;;;;;78.97;16.13;;;;;;;;;;4976830;28;20288;-47
2022/05/10 05:15:32;;;;;;;68.07;15.13;;;;;;;;;;4970940;28;20304;-47
2022/05/10 05:17:58;;;;;;;102.43;20.70;;;;;;;;;;4972245;28;20224;-47
2022/05/10 05:20:24;;;;;;;119.07;24.00;;;;;;;;;;4965380;28;20193;-48
2022/05/10 05:22:50;;;;;;;80.70;17.63;;;;;;;;;;4968836;28;20218;-48
2022/05/10 05:25:16;;;;;;;73.37;16.87;;;;;;;;;;4971470;28;20325;-48
2022/05/10 05:27:42;;;;;;;97.53;19.77;;;;;;;;;;4974987;28;20221;-48
2022/05/10 05:30:09;;;;;;;109.70;21.43;;;;;;;;;;4970502;28;20685;-48
2022/05/10 05:32:35;;;;;;;135.17;26.40;;;;;;;;;;4966745;28;20194;-48
2022/05/10 05:35:01;;;;;;;160.53;31.33;;;;;;;;;;4967408;28;20555;-48
2022/05/10 05:37:33;;;;;;;104.53;21.87;;;;;;;;;;4967352;28;20276;-48
2022/05/10 05:39:59;;;;;;;91.27;19.57;;;;;;;;;;4971907;28;20289;-48
2022/05/10 05:42:25;;;;;;;167.07;31.77;;;;;;;;;;4962273;28;20846;-48
2022/05/10 05:44:51;;;;;;;110.57;23.47;;;;;;;;;;4964105;28;20338;-48
2022/05/10 05:47:17;;;;;;;113.37;24.17;;;;;;;;;;4961218;28;20386;-48
2022/05/10 05:49:43;;;;;;;87.47;19.63;;;;;;;;;;4967903;28;20222;-47
2022/05/10 05:52:11;;;;;;;152.83;30.07;;;;;;;;;;4965229;28;20245;-48
2022/05/10 05:54:37;;;;;;;80.03;17.93;;;;;;;;;;4984114;28;20320;-48
2022/05/10 05:57:04;;;;;;;206.93;36.27;;;;;;;;;;4965681;28;20313;-48
2022/05/10 05:59:30;;;;;;;147.10;29.17;;;;;;;;;;4973357;28;20440;-48
2022/05/10 06:01:56;;;;;;;142.23;27.17;;;;;;;;;;4970521;28;20216;-48
2022/05/10 06:04:22;;;;;;;103.33;22.40;;;;;;;;;;4965344;28;20711;-47
2022/05/10 06:06:48;;;;;;;124.50;26.10;;;;;;;;;;4969159;28;20260;-47
2022/05/10 06:09:14;;;;;;;103.73;21.70;;;;;;;;;;4975370;28;20209;-47
2022/05/10 06:11:40;;;;;;;97.60;20.70;;;;;;;;;;4977387;28;20252;-47
2022/05/10 06:14:06;;;;;;;109.77;22.17;;;;;;;;;;4973121;28;20267;-47
2022/05/10 06:16:32;;;;;;;102.90;21.23;;;;;;;;;;4974425;28;20228;-47
2022/05/10 06:18:58;;;;;;;99.60;21.80;;;;;;;;;;4976589;28;20220;-47
2022/05/10 06:21:24;;;;;;;106.23;22.40;;;;;;;;;;4979315;28;20225;-48
2022/05/10 06:23:50;;;;;;;74.27;17.53;;;;;;;;;;4975689;28;20425;-47
2022/05/10 06:26:16;;;;;;;111.30;21.97;;;;;;;;;;4968351;28;20623;-48
2022/05/10 06:28:42;;;;;;;113.20;21.83;;;;;;;;;;4979869;28;20217;-48
2022/05/10 06:31:10;;;;;;;89.40;18.70;;;;;;;;;;4976454;28;20217;-48
2022/05/10 06:33:36;;;;;;;132.13;25.93;;;;;;;;;;4967914;28;20224;-49
2022/05/10 06:36:03;;;;;;;99.70;21.10;;;;;;;;;;4975747;28;20237;-49
2022/05/10 06:38:29;;;;;;;90.18;19.35;;;;;;;;;;4976789;28;20511;-48
2022/05/10 06:40:56;;;;;;;89.18;19.30;;;;;;;;;;4970192;28;20248;-47
2022/05/10 06:43:22;;;;;;;208.55;37.92;;;;;;;;;;4945717;28;20336;-47
2022/05/10 06:45:48;;;;;;;144.35;27.70;;;;;;;;;;4947682;28;20646;-47
2022/05/10 06:48:15;;;;;;;145.43;29.70;;;;;;;;;;4965023;28;20221;-48
2022/05/10 06:50:42;;;;;;;130.15;26.77;;;;;;;;;;4962286;28;20265;-48
2022/05/10 06:53:09;;;;;;;122.45;26.05;;;;;;;;;;4961911;28;20961;-47
2022/05/10 06:55:38;;;;;;;98.65;21.83;;;;;;;;;;4970320;28;20259;-48
2022/05/10 06:58:04;;;;;;;106.80;23.48;;;;;;;;;;4980237;28;20585;-48
2022/05/10 07:00:32;;;;;;;191.00;37.95;;;;;;;;;;4964666;28;20232;-48
2022/05/10 07:02:58;;;;;;;145.65;28.90;;;;;;;;;;4956999;28;20574;-49
2022/05/10 07:05:24;;;;;;;92.38;21.10;;;;;;;;;;4961849;28;20193;-49
2022/05/10 07:07:50;;;;;;;124.75;26.77;;;;;;;;;;4968116;28;20373;-49
2022/05/10 07:10:17;;;;;;;95.07;20.88;;;;;;;;;;4961566;28;20217;-49
2022/05/10 07:12:44;;;;;;;84.20;18.70;;;;;;;;;;4966143;28;20257;-49
2022/05/10 07:15:12;;;;;;;174.70;34.10;;;;;;;;;;4961509;28;20276;-49
2022/05/10 07:17:38;;;;;;;177.95;33.60;;;;;;;;;;4963993;28;20221;-49
2022/05/10 07:20:05;;;;;;;109.10;24.05;;;;;;;;;;4964711;28;20186;-49
2022/05/10 07:22:31;;;;;;;153.10;32.58;;;;;;;;;;4969419;28;20648;-49
2022/05/10 07:24:57;;;;;;;78.18;19.52;;;;;;;;;;4961208;28;20295;-49
2022/05/10 07:27:23;;;;;;;100.68;22.83;;;;;;;;;;4966986;28;22659;-49
2022/05/10 07:29:49;;;;;;;123.43;26.63;;;;;;;;;;4966070;28;20225;-49
2022/05/10 07:32:15;;;;;;;240.70;49.70;;;;;;;;;;4964298;28;20185;-49
2022/05/10 07:34:42;;;;;;;122.18;26.75;;;;;;;;;;4970497;28;20225;-49
2022/05/10 07:37:08;;;;;;;103.10;23.60;;;;;;;;;;4967237;28;20256;-49
2022/05/10 07:39:35;;;;;;;98.97;22.27;;;;;;;;;;4972982;28;20280;-49
2022/05/10 07:42:03;;;;;;;182.27;38.10;;;;;;;;;;4968878;28;20233;-49
2022/05/10 07:44:29;;;;;;;68.53;17.85;;;;;;;;;;4971584;28;20186;-49
2022/05/10 07:46:55;;;;;;;142.43;30.98;;;;;;;;;;4958996;28;20256;-49
2022/05/10 07:49:21;;;;;;;158.20;33.25;;;;;;;;;;4966299;28;20601;-49
2022/05/10 07:51:47;;;;;;;124.55;28.27;;;;;;;;;;4969383;28;20213;-49
2022/05/10 07:54:13;;;;;;;116.93;27.83;;;;;;;;;;4970025;28;20269;-49
2022/05/10 07:56:40;;;;;;;133.18;30.42;;;;;;;;;;4969318;28;20221;-49
2022/05/10 07:59:06;;;;;;;143.30;32.50;;;;;;;;;;4963516;28;20292;-49
2022/05/10 08:01:32;;;;;;;109.30;24.75;;;;;;;;;;4983214;28;20398;-49
2022/05/10 08:03:58;;;;;;;89.18;21.85;;;;;;;;;;4981605;28;20202;-49
2022/05/10 08:06:26;;;;;;;69.95;18.33;;;;;;;;;;4982252;28;20220;-49
2022/05/10 08:08:52;;;;;;;76.82;19.58;;;;;;;;;;4979688;28;20708;-49
2022/05/10 08:11:17;;;;;;;87.40;22.50;;;;;;;;;;4983084;28;20324;-49
2022/05/10 08:13:43;;;;;;;97.15;23.35;;;;;;;;;;4984430;28;20293;-49
2022/05/10 08:16:09;;;;;;;85.75;21.20;;;;;;;;;;4978708;28;20225;-49
2022/05/10 08:18:36;;;;;;;81.63;20.60;;;;;;;;;;4985153;28;20232;-49
2022/05/10 08:21:03;;;;;;;74.95;19.35;;;;;;;;;;4982991;28;20213;-49
2022/05/10 08:23:30;;;;;;;95.15;22.88;;;;;;;;;;4981188;28;20205;-49
2022/05/10 08:25:56;;;;;;;76.32;19.80;;;;;;;;;;4984342;28;20268;-49
2022/05/10 08:28:23;;;;;;;105.03;25.20;;;;;;;;;;4980220;28;20457;-49
2022/05/10 08:30:49;;;;;;;116.93;28.23;;;;;;;;;;4976655;28;20218;-49
2022/05/10 08:33:23;;;;;;;90.03;22.35;;;;;;;;;;4967780;28;20255;-49
2022/05/10 08:35:49;;;;;;;74.00;19.52;;;;;;;;;;4981174;28;20293;-49
2022/05/10 08:38:15;;;;;;;82.13;20.92;;;;;;;;;;4978593;28;20205;-49
2022/05/10 08:40:43;;;;;;;85.80;21.25;;;;;;;;;;4983737;28;20217;-49
2022/05/10 08:43:12;;;;;;;45.17;13.27;;;;;;;;;;4980634;28;20820;-49
2022/05/10 08:45:41;;;;;;;98.65;25.17;;;19.70;1.00;;;;;;4983246;28;20271;-49
2022/05/10 08:48:07;;;;;;;76.45;21.05;;;19.60;99.90;;;;;;4977313;28;20222;-49
2022/05/10 08:50:33;;;;;;;102.93;27.50;;;;;;;;;;4984371;28;20178;-50
2022/05/10 08:52:59;;;;;;;118.45;30.70;;;19.90;99.90;;;;;;4978329;28;20689;-50
2022/05/10 08:55:28;;;;;;;77.55;22.20;;;19.90;99.90;;;;;;4983237;28;20213;-49
2022/05/10 08:58:28;;;;;;;90.10;25.55;;;20.10;99.90;;;;;;4975975;28;20231;-49
2022/05/10 09:00:57;;;;;;;70.97;20.23;;;20.20;99.90;;;;;;4980656;28;20523;-49
2022/05/10 09:03:42;;;;;;;67.93;19.90;;;20.30;99.90;;;;;;4982502;28;20229;-49
2022/05/10 09:06:20;;;;;;;89.88;24.90;;;20.40;98.00;;;;;;4985994;28;20233;-49
2022/05/10 09:09:02;;;;;;;102.75;27.58;;;20.50;99.90;;;;;;4985455;28;20224;-49
2022/05/10 09:11:42;;;;;;;126.47;32.65;;;20.60;96.20;;;;;;4980301;28;20189;-50
2022/05/10 09:14:12;;;;;;;92.90;24.73;;;20.50;95.40;;;;;;4980941;28;20188;-50
2022/05/10 09:16:38;;;;;;;69.45;19.33;;;20.70;1.00;;;;;;4982447;28;20233;-49
2022/05/10 09:19:04;;;;;;;98.13;26.20;;;;;;;;;;4985576;28;20237;-49
2022/05/10 09:21:48;;;;;;;84.25;24.30;;;21.20;94.00;;;;;;4986476;28;20224;-49
2022/05/10 09:24:32;;;;;;;91.53;25.25;;;21.20;72.80;;;;;;4982447;28;20268;-49
2022/05/10 09:27:11;;;;;;;104.60;29.08;;;21.60;99.90;;;;;;4987032;28;20217;-49
2022/05/10 09:29:39;;;;;;;69.20;20.88;;;21.50;15.50;;;;;;4987942;28;20268;-50
2022/05/10 09:35:17;;;;;;;79.15;22.75;;;21.70;1.00;;;;;;4981491;28;20216;-49
2022/05/10 09:38:00;;;;;;;74.78;22.77;;;21.80;1.00;;;;;;4984586;28;20232;-49
2022/05/10 09:40:35;;;;;;;92.28;27.10;;;21.70;1.00;;;;;;4978311;28;20210;-49
2022/05/10 09:43:29;;;;;;;64.32;20.40;;;21.70;1.00;;;;;;4981640;28;20232;-49
2022/05/10 09:46:19;;;;;;;87.53;25.77;;;22.10;1.00;;;;;;4980893;28;20305;-49
2022/05/10 09:48:46;;;;;;;74.53;21.98;;;22.10;1.00;;;;;;4982996;28;20661;-50
2022/05/10 09:51:45;;;;;;;107.45;30.23;;;22.20;1.00;;;;;;4983038;28;20586;-49
2022/05/10 09:54:21;;;;;;;76.85;22.80;;;22.40;1.00;;;;;;4984226;28;20232;-50
2022/05/10 09:56:52;;;;;;;93.32;27.27;;;22.40;1.00;;;;;;4981506;28;21077;-49
2022/05/10 09:59:18;;;;;;;78.45;23.27;;;;;;;;;;4983310;28;20670;-49
2022/05/10 10:01:56;;;;;;;97.13;26.98;;;22.60;1.00;;;;;;4987053;28;20221;-49
2022/05/10 10:04:40;;;;;;;70.10;21.88;;;22.90;99.90;;;;;;4985859;28;20213;-50
2022/05/10 10:07:13;;;;;;;77.22;24.05;;;22.70;1.00;;;;;;4983507;28;20448;-49
2022/05/10 10:09:43;;;;;;;64.35;20.23;;;22.90;1.00;;;;;;4987087;28;20233;-50
2022/05/10 10:12:31;;;;;;;107.85;30.70;;;23.00;1.00;;;;;;4981961;28;20800;-49
2022/05/10 10:14:58;;;;;;;90.15;27.17;;;23.20;1.00;;;;;;4984616;28;20236;-49
2022/05/10 10:17:33;;;;;;;73.93;22.20;;;23.30;1.00;;;;;;4987408;28;20646;-50
2022/05/10 10:20:12;;;;;;;147.50;42.08;;;23.30;1.00;;;;;;4977492;28;20209;-49
2022/05/10 10:22:43;;;;;;;67.60;21.83;;;23.30;1.00;;;;;;4980081;28;20229;-49
2022/05/10 10:25:14;;;;;;;90.18;28.20;;;23.40;1.00;;;;;;4984516;28;20318;-50
2022/05/10 10:27:47;;;;;;;83.13;25.27;;;23.50;1.00;;;;;;4983610;28;20253;-50
2022/05/10 10:30:38;;;;;;;107.35;30.67;;;23.50;1.00;;;;;;4969768;28;20279;-50
2022/05/10 10:33:40;;;;;;;125.35;33.63;;;23.60;1.00;;;;;;4963010;28;20538;-50
2022/05/10 10:36:14;;;;;;;80.95;23.95;;;23.70;1.00;;;;;;4966571;28;20752;-50
2022/05/10 10:39:02;;;;;;;107.57;31.00;;;24.00;1.00;;;;;;4970168;28;20201;-50
2022/05/10 10:41:46;;;;;;;108.57;31.13;;;23.90;1.00;;;;;;4969236;28;20181;-50
2022/05/10 10:44:21;;;;;;;97.43;28.88;;;24.00;1.00;;;;;;4968026;28;20208;-50
2022/05/10 10:47:11;;;;;;;171.95;45.28;;;24.10;1.00;;;;;;4970764;28;20217;-50
2022/05/10 10:49:45;;;;;;;300.60;77.57;;;24.10;1.00;;;;;;4966189;28;20213;-50
2022/05/10 10:52:13;;;;;;;151.10;40.40;;;24.10;1.00;;;;;;4953482;28;20224;-50
2022/05/10 10:54:39;;;;;;;162.32;42.30;;;;;;;;;;4961277;28;20266;-50
2022/05/10 10:57:05;;;;;;;205.45;59.75;;;;;;;;;;4965785;28;20320;-50
2022/05/10 11:00:08;;;;;;;151.40;41.92;;;24.40;1.00;;;;;;4956780;28;20296;-50
2022/05/10 11:02:58;;;;;;;140.68;39.00;;;24.40;1.00;;;;;;4974617;28;20209;-50
2022/05/10 11:05:50;;;;;;;100.32;31.10;;;24.50;1.00;;;;;;4960802;28;20206;-50
2022/05/10 11:08:51;;;;;;;134.25;40.03;;;24.60;1.00;;;;;;4971397;28;20216;-50
2022/05/10 11:11:51;;;;;;;151.23;43.80;;;25.00;1.00;;;;;;4961812;28;20549;-50
2022/05/10 11:14:17;;;;;;;105.63;31.55;;;;;;;;;;4966232;28;20368;-50
2022/05/10 11:16:59;;;;;;;120.97;35.60;;;24.70;1.00;;;;;;4968526;28;20603;-50
2022/05/10 11:19:50;;;;;;;83.70;27.92;;;24.90;1.00;;;;;;4970147;28;20214;-50
2022/05/10 11:22:21;;;;;;;82.43;26.60;;;24.30;99.90;;;;;;4957707;28;20226;-50
2022/05/10 11:24:55;;;;;;;148.82;41.15;;;24.50;1.00;;;;;;4969890;28;20215;-50
2022/05/10 11:28:04;;;;;;;150.23;43.70;;;24.70;1.00;;;;;;4957265;28;20239;-50
2022/05/10 11:30:58;;;;;;;63.17;21.48;;;24.70;1.00;;;;;;4966620;28;20214;-50
2022/05/10 11:33:51;;;;;;;141.32;41.15;;;24.70;1.00;;;;;;4956561;28;20314;-50
2022/05/10 11:36:32;;;;;;;85.65;27.63;;;25.30;99.90;;;;;;4963637;28;20241;-49
2022/05/10 11:39:12;;;;;;;191.38;55.97;;;25.20;1.00;;;;;;4957869;28;20216;-51
2022/05/10 11:41:56;;;;;;;121.68;37.83;;;25.60;1.00;;;;;;4964738;28;20702;-50
2022/05/10 11:44:37;;;;;;;116.80;36.42;;;25.60;1.00;;;;;;4961677;28;20182;-50
2022/05/10 11:47:26;;;;;;;186.25;53.10;;;25.70;1.00;;;;;;4959600;28;20331;-50
2022/05/10 11:51:38;;;;;;;110.50;35.35;;;26.20;1.00;;;;;;4969297;28;20241;-50
2022/05/10 11:54:00;;;;;;;54.03;20.50;;;26.30;99.90;;;;;;4961393;28;20281;-50
2022/05/10 11:56:33;;;;;;;76.82;26.13;;;26.60;1.00;;;;;;4982396;28;20261;-50
2022/05/10 11:59:03;;;;;;;104.57;33.20;;;26.70;1.00;;;;;;4978782;28;20221;-50
2022/05/10 12:01:47;;;;;;;91.80;31.15;;;26.70;1.00;;;;;;4981091;28;20248;-50
2022/05/10 12:04:39;;;;;;;85.88;30.60;;;26.80;1.00;;;;;;4979937;28;20267;-50
2022/05/10 12:07:20;;;;;;;115.78;37.67;;;26.90;1.00;;;;;;4981476;28;20454;-50
2022/05/10 12:09:51;;;;;;;78.38;28.42;;;27.10;1.00;;;;;;4981093;28;20214;-50
2022/05/10 12:12:32;;;;;;;140.68;46.17;;;27.30;1.00;;;;;;4975197;28;20222;-50
2022/05/10 12:24:05;;;;;;;94.93;38.20;;;27.60;1.00;;;;;;4973745;28;20216;-51
2022/05/10 12:26:37;;;;;;;232.20;86.45;;;28.40;41.10;;;;;;4951076;28;20273;-50
2022/05/10 12:29:27;;;;;;;130.65;52.80;;;28.40;98.00;;;;;;4956737;28;20279;-51
2022/05/10 12:31:59;;;;;;;163.40;66.93;;;28.70;1.00;;;;;;4956824;28;20224;-51
2022/05/10 12:34:48;;;;;;;205.30;83.13;;;28.90;1.00;;;;;;4953296;28;20227;-51
2022/05/10 12:37:24;;;;;;;117.68;52.78;;;28.80;1.00;;;;;;4965139;28;20221;-51
2022/05/10 12:40:08;;;;;;;204.07;80.60;;;28.90;1.00;;;;;;4959684;28;20347;-51
2022/05/10 12:42:47;;;;;;;167.10;65.80;;;29.40;99.90;;;;;;4965234;28;20527;-51
2022/05/10 12:45:32;;;;;;;236.73;90.50;;;28.80;1.00;;;;;;4965277;28;20508;-48
2022/05/10 12:48:19;;;;;;;188.70;74.68;;;28.60;1.00;;;;;;4949774;28;20252;-47
2022/05/10 12:51:02;;;;;;;204.93;85.75;;;28.60;1.00;;;;;;4961783;28;20886;-48
2022/05/10 12:53:38;;;;;;;134.38;68.43;;;27.70;1.00;;;;;;4968869;28;20212;-46
2022/05/10 12:56:24;;;;;;;215.50;103.72;;;28.60;1.00;;;;;;4965658;28;20205;-45
2022/05/10 12:59:06;;;;;;;155.65;140.60;;;28.90;1.00;;;;;;4959237;28;20218;-45
2022/05/10 13:01:35;;;;;;;242.93;162.25;;;29.30;1.00;;;;;;4961775;28;20259;-45
2022/05/10 13:04:12;;;;;;;224.45;161.65;;;29.60;1.00;;;;;;4957916;28;20241;-45
2022/05/10 13:06:53;;;;;;;150.45;136.27;;;29.60;1.00;;;;;;4976741;28;20630;-45
2022/05/10 13:09:30;;;;;;;186.63;152.35;;;29.80;1.00;;;;;;4971879;28;20260;-45
2022/05/10 13:12:09;;;;;;;270.90;182.07;;;29.80;1.00;;;;;;4973128;28;20233;-45
2022/05/10 13:14:47;;;;;;;231.55;173.30;;;30.20;1.00;;;;;;4967510;28;20288;-45
2022/05/10 13:17:22;;;;;;;190.65;166.63;;;30.40;1.00;;;;;;4972171;28;21129;-46
2022/05/10 13:19:48;;;;;;;182.52;150.00;;;30.10;1.00;;;;;;4972469;28;20650;-46
2022/05/10 13:22:18;;;;;;;202.80;153.43;;;29.80;1.00;;;;;;4969016;28;20225;-47
2022/05/10 13:24:46;;;;;;;206.60;155.27;;;29.60;1.00;;;;;;4968730;28;20209;-47
2022/05/10 13:27:24;;;;;;;252.98;172.98;;;30.00;1.00;;;;;;4972483;28;20240;-48
2022/05/10 13:29:49;;;;;;;237.27;170.25;;;30.10;38.90;;;;;;4969219;28;20531;-47
2022/05/10 13:32:41;;;;;;;232.10;156.60;;;30.10;1.00;;;;;;4973498;28;20260;-47
2022/05/10 13:35:26;;;;;;;170.55;150.65;;;29.70;99.90;;;;;;4974951;28;20331;-47
2022/05/10 13:38:11;;;;;;;194.82;161.95;;;29.90;1.00;;;;;;4974872;28;20350;-47
2022/05/10 13:40:46;;;;;;;231.75;177.15;;;29.90;1.00;;;;;;4969887;28;20575;-47
2022/05/10 13:43:21;;;;;;;213.77;161.80;;;30.40;29.00;;;;;;4969088;28;20462;-47
2022/05/10 13:45:52;;;;;;;162.63;142.65;;;29.80;1.00;;;;;;4966224;28;20266;-47
2022/05/10 13:48:24;;;;;;;252.73;218.50;;;29.80;42.60;;;;;;4977806;28;20252;-47
2022/05/10 13:50:55;;;;;;;259.98;221.27;;;30.00;1.00;;;;;;4973473;28;20236;-47
2022/05/10 13:53:30;;;;;;;217.48;194.40;;;29.90;1.00;;;;;;4976833;28;20277;-47
2022/05/10 13:55:57;;;;;;;197.65;177.98;;;30.10;1.00;;;;;;4978105;28;20862;-47
2022/05/10 13:58:29;;;;;;;195.77;169.55;;;29.60;1.00;;;;;;4974106;28;20621;-48
2022/05/10 14:00:55;;;;;;;196.82;177.23;;;;;;;;;;4978789;28;20231;-47
2022/05/10 14:03:21;;;;;;;224.25;184.82;;;;;;;;;;4974715;28;20237;-47
2022/05/10 14:05:49;;;;;;;202.77;168.80;;;30.00;1.00;;;;;;4972982;28;20195;-47
2022/05/10 14:08:24;;;;;;;198.32;176.95;;;30.20;1.00;;;;;;4977656;28;20262;-47
2022/05/10 14:11:13;;;;;;;208.48;186.63;;;30.40;1.00;;;;;;4972789;28;20685;-48